Time;durP1;ratioP1;P1;durP2;ratioP2;P2;SDS_P1;SDS_P2;PMS_P1;PMS_P2;Temp;Humidity;BMP_temperature;BMP_pressure;BME280_temperature;BME280_humidity;BME280_pressure;Samples;Min_cycle;Max_cycle;Signal;HPM_P1;HPM_P2
2022/10/02 00:01:54;;;;;;;;;;;;;;;21.09;32.79;97300.53;4956705;29;1011;-79
2022/10/02 00:04:24;;;;;;;;;;;;;;;21.22;32.66;97292.00;4956473;29;982;-79
2022/10/02 00:06:50;;;;;;;;;;;;;;;20.99;33.03;97301.72;4940226;29;1450;-79
2022/10/02 00:09:19;;;;;;;;;;;;;;;20.99;32.81;97313.03;4940388;29;1972;-79
2022/10/02 00:11:46;;;;;;;;;;;;;;;21.24;32.55;97312.94;4940676;29;1012;-79
2022/10/02 00:14:12;;;;;;;;;;;;;;;21.05;32.54;97305.53;4940682;29;865;-79
2022/10/02 00:16:42;;;;;;;;;;;;;;;21.10;32.52;97307.00;4940665;29;946;-79
2022/10/02 00:19:08;;;;;;;;;;;;;;;21.18;32.56;97313.97;4940997;29;823;-80
2022/10/02 00:21:39;;;;;;;;;;;;;;;21.17;32.84;97301.84;4940675;29;1041;-79
2022/10/02 00:24:05;;;;;;;;;;;;;;;21.04;32.91;97296.25;4955820;28;1642;-79
2022/10/02 00:26:34;;;;;;;;;;;;;;;21.00;32.87;97292.75;4940676;29;1133;-80
2022/10/02 00:29:06;;;;;;;;;;;;;;;21.11;32.82;97285.94;4956726;29;1910;-79
2022/10/02 00:31:44;;;;;;;;;;;;;;;21.21;32.75;97273.44;4940519;29;1123;-79
2022/10/02 00:34:19;;;;;;;;;;;;;;;21.04;33.19;97267.19;4958833;28;1057;-79
2022/10/02 00:37:00;;;;;;;;;;;;;;;21.12;33.11;97282.63;5016952;28;755;-80
2022/10/02 00:39:38;;;;;;;;;;;;;;;20.94;33.62;97282.50;5030690;28;1469;-79
2022/10/02 00:42:21;;;;;;;;;;;;;;;20.97;33.53;97288.00;5015281;28;1493;-79
2022/10/02 00:44:53;;;;;;;;;;;;;;;20.96;33.10;97305.44;5016818;28;712;-79
2022/10/02 00:47:22;;;;;;;;;;;;;;;21.03;33.82;97308.00;5015683;28;778;-79
2022/10/02 00:49:50;;;;;;;;;;;;;;;21.07;35.07;97320.78;5015808;28;1910;-79
2022/10/02 00:52:16;;;;;;;;;;;;;;;21.36;35.37;97314.16;5016982;28;704;-79
2022/10/02 00:55:00;;;;;;;;;;;;;;;21.34;35.63;97310.97;5017029;28;790;-79
2022/10/02 00:57:29;;;;;;;;;;;;;;;21.35;35.15;97311.75;5016579;28;1522;-79
2022/10/02 00:59:57;;;;;;;;;;;;;;;21.40;34.86;97309.16;5016749;28;1579;-79
2022/10/02 01:02:22;;;;;;;;;;;;;;;21.53;34.18;97303.41;5020899;28;771;-79
2022/10/02 01:04:48;;;;;;;;;;;;;;;21.42;33.97;97308.69;5019603;28;1473;-79
2022/10/02 01:07:13;;;;;;;;;;;;;;;21.07;34.78;97315.13;5036160;28;672;-79
2022/10/02 01:09:39;;;;;;;;;;;;;;;21.38;33.79;97322.97;5035451;28;1976;-79
2022/10/02 01:12:04;;;;;;;;;;;;;;;21.29;34.03;97317.97;5020112;28;869;-80
2022/10/02 01:14:30;;;;;;;;;;;;;;;21.31;33.87;97324.00;5020580;28;771;-80
2022/10/02 01:16:56;;;;;;;;;;;;;;;21.16;33.97;97317.25;5034931;28;1538;-79
2022/10/02 01:19:28;;;;;;;;;;;;;;;21.16;33.79;97314.44;5020542;28;818;-79
2022/10/02 01:21:56;;;;;;;;;;;;;;;20.93;34.17;97303.53;5002966;28;1360;-79
2022/10/02 01:24:26;;;;;;;;;;;;;;;21.31;33.72;97307.03;5035474;28;1120;-79
2022/10/02 01:26:51;;;;;;;;;;;;;;;21.20;33.65;97306.59;5035481;28;967;-79
2022/10/02 01:29:17;;;;;;;;;;;;;;;21.18;33.56;97314.75;5020130;28;1914;-80
2022/10/02 01:31:42;;;;;;;;;;;;;;;21.11;33.85;97303.69;5001475;28;1580;-79
2022/10/02 01:34:08;;;;;;;;;;;;;;;21.14;33.52;97296.31;5035117;28;949;-80
2022/10/02 01:36:34;;;;;;;;;;;;;;;21.02;33.86;97301.56;5035474;28;817;-80
2022/10/02 01:38:59;;;;;;;;;;;;;;;21.27;33.54;97300.69;5035510;28;771;-79
2022/10/02 01:41:24;;;;;;;;;;;;;;;21.30;33.11;97308.28;5018524;28;880;-79
2022/10/02 01:43:51;;;;;;;;;;;;;;;21.04;33.92;97309.63;5034838;28;779;-79
2022/10/02 01:46:23;;;;;;;;;;;;;;;21.10;33.60;97304.94;5034747;28;1494;-79
2022/10/02 01:48:51;;;;;;;;;;;;;;;21.11;33.74;97302.91;5037232;28;1985;-80
2022/10/02 01:51:35;;;;;;;;;;;;;;;21.32;33.23;97294.47;5037473;28;869;-80
2022/10/02 01:54:15;;;;;;;;;;;;;;;21.11;33.57;97297.25;5037332;28;870;-79
2022/10/02 01:57:01;;;;;;;;;;;;;;;21.35;33.06;97283.47;5037161;28;755;-80
2022/10/02 01:59:32;;;;;;;;;;;;;;;21.13;33.50;97250.25;4961867;28;1088;-79
2022/10/02 02:02:03;;;;;;;;;;;;;;;21.14;33.60;97257.53;4977836;28;1397;-80
2022/10/02 02:04:32;;;;;;;;;;;;;;;21.19;33.20;97271.09;4962210;28;1218;-80
2022/10/02 02:06:59;;;;;;;;;;;;;;;21.13;33.40;97255.94;4978025;28;759;-80
2022/10/02 02:09:36;;;;;;;;;;;;;;;21.22;32.84;97247.50;4978322;28;1983;-80
2022/10/02 02:12:07;;;;;;;;;;;;;;;21.02;33.14;97249.88;4977010;28;1042;-79
2022/10/02 02:14:34;;;;;;;;;;;;;;;21.23;32.73;97243.44;4961242;28;1493;-80
2022/10/02 02:17:11;;;;;;;;;;;;;;;21.25;32.81;97223.97;4978244;28;1008;-80
2022/10/02 02:19:38;;;;;;;;;;;;;;;21.42;32.18;97210.41;4977928;28;778;-80
2022/10/02 02:22:24;;;;;;;;;;;;;;;21.04;32.92;97185.16;4978213;28;783;-79
2022/10/02 02:24:57;;;;;;;;;;;;;;;21.03;32.84;97183.56;4961625;28;1173;-80
2022/10/02 02:27:26;;;;;;;;;;;;;;;21.01;32.79;97194.56;4997047;28;863;-80
2022/10/02 02:29:52;;;;;;;;;;;;;;;21.06;32.62;97165.69;4979825;28;1979;-79
2022/10/02 02:32:19;;;;;;;;;;;;;;;21.04;34.16;97134.25;4997210;28;1131;-79
2022/10/02 02:34:52;;;;;;;;;;;;;;;21.13;34.74;97102.38;4997505;28;854;-79
2022/10/02 02:37:18;;;;;;;;;;;;;;;21.43;34.97;97098.00;4968432;28;1194;-80
2022/10/02 02:39:54;;;;;;;;;;;;;;;21.54;35.03;97104.00;5000161;28;1031;-79
2022/10/02 02:42:21;;;;;;;;;;;;;;;21.42;34.49;97107.75;5000411;28;842;-79
2022/10/02 02:44:48;;;;;;;;;;;;;;;21.50;34.15;97109.03;5007374;28;1483;-79
2022/10/02 02:47:21;;;;;;;;;;;;;;;21.21;34.35;97107.31;5019674;28;825;-79
2022/10/02 02:49:52;;;;;;;;;;;;;;;21.42;33.55;97113.41;5019495;28;1922;-79
2022/10/02 02:52:19;;;;;;;;;;;;;;;21.29;33.75;97136.88;5036418;28;937;-80
2022/10/02 02:54:46;;;;;;;;;;;;;;;21.29;33.62;97167.22;5019796;28;884;-79
2022/10/02 02:57:12;;;;;;;;;;;;;;;21.11;33.54;97204.69;5019501;28;906;-79
2022/10/02 02:59:37;;;;;;;;;;;;;;;21.20;33.34;97223.78;5016158;28;1479;-79
2022/10/02 03:02:03;;;;;;;;;;;;;;;20.97;33.32;97233.50;5017322;28;771;-80
2022/10/02 03:04:28;;;;;;;;;;;;;;;21.11;32.72;97235.00;5017231;28;676;-79
2022/10/02 03:06:57;;;;;;;;;;;;;;;21.24;32.52;97230.88;5018441;28;803;-79
2022/10/02 03:09:23;;;;;;;;;;;;;;;21.24;32.31;97233.72;5016758;28;1981;-80
2022/10/02 03:11:52;;;;;;;;;;;;;;;21.07;32.14;97229.47;5017205;28;855;-80
2022/10/02 03:14:18;;;;;;;;;;;;;;;21.17;32.11;97225.47;5017863;28;1540;-80
2022/10/02 03:16:52;;;;;;;;;;;;;;;21.06;31.89;97227.91;5018275;28;731;-79
2022/10/02 03:19:26;;;;;;;;;;;;;;;21.08;32.10;97223.34;5017892;28;914;-79
2022/10/02 03:22:03;;;;;;;;;;;;;;;21.26;31.69;97202.91;5033507;28;853;-79
2022/10/02 03:24:28;;;;;;;;;;;;;;;21.25;31.58;97206.19;5032822;28;794;-79
2022/10/02 03:26:57;;;;;;;;;;;;;;;21.13;31.60;97202.19;5018088;28;797;-79
2022/10/02 03:29:27;;;;;;;;;;;;;;;21.02;31.83;97205.41;5031253;28;1886;-79
2022/10/02 03:31:52;;;;;;;;;;;;;;;20.91;31.74;97199.34;5032440;28;1406;-79
2022/10/02 03:34:18;;;;;;;;;;;;;;;20.89;31.81;97209.56;5016923;28;1233;-79
2022/10/02 03:36:43;;;;;;;;;;;;;;;20.90;31.98;97226.06;5017695;28;850;-79
2022/10/02 03:39:09;;;;;;;;;;;;;;;20.96;31.57;97226.25;5033192;28;1120;-80
2022/10/02 03:41:34;;;;;;;;;;;;;;;20.91;31.77;97229.69;5016599;28;1115;-79
2022/10/02 03:44:00;;;;;;;;;;;;;;;20.93;31.35;97242.09;5017692;28;877;-79
2022/10/02 03:46:25;;;;;;;;;;;;;;;20.89;31.25;97258.41;5017031;28;1323;-79
2022/10/02 03:48:50;;;;;;;;;;;;;;;20.99;31.35;97256.47;5017598;28;1910;-79
2022/10/02 03:51:16;;;;;;;;;;;;;;;20.96;31.40;97265.84;5016199;28;890;-79
2022/10/02 03:53:41;;;;;;;;;;;;;;;20.86;31.39;97281.16;5032989;28;1258;-79
2022/10/02 03:56:08;;;;;;;;;;;;;;;20.81;31.49;97288.97;5017982;28;711;-79
2022/10/02 03:58:33;;;;;;;;;;;;;;;21.01;30.92;97293.53;5016068;28;1663;-79
2022/10/02 04:01:19;;;;;;;;;;;;;;;21.00;30.93;97294.81;5016780;28;954;-79
2022/10/02 04:03:45;;;;;;;;;;;;;;;20.83;31.20;97287.72;5016801;28;891;-79
2022/10/02 04:06:14;;;;;;;;;;;;;;;20.97;31.84;97304.19;5017758;28;806;-79
2022/10/02 04:08:42;;;;;;;;;;;;;;;21.04;32.62;97309.63;5016200;28;1910;-79
2022/10/02 04:11:08;;;;;;;;;;;;;;;21.11;32.99;97323.50;5000162;28;1315;-79
2022/10/02 04:13:37;;;;;;;;;;;;;;;21.19;33.04;97330.50;5017207;28;840;-79
2022/10/02 04:16:05;;;;;;;;;;;;;;;21.04;32.55;97338.69;5015822;28;810;-79
2022/10/02 04:18:33;;;;;;;;;;;;;;;21.14;32.37;97345.22;5016074;28;940;-79
2022/10/02 04:20:59;;;;;;;;;;;;;;;21.29;31.91;97337.00;5016231;28;762;-79
2022/10/02 04:23:27;;;;;;;;;;;;;;;21.28;31.88;97336.22;5016013;28;749;-79
2022/10/02 04:25:54;;;;;;;;;;;;;;;21.18;31.93;97330.94;5016854;28;823;-79
2022/10/02 04:28:25;;;;;;;;;;;;;;;21.00;31.96;97337.22;5017283;28;1914;-79
2022/10/02 04:30:51;;;;;;;;;;;;;;;21.00;31.83;97325.91;5015793;28;1208;-79
2022/10/02 04:33:17;;;;;;;;;;;;;;;20.90;32.19;97338.38;5000240;28;1144;-79
2022/10/02 04:35:52;;;;;;;;;;;;;;;20.95;32.07;97334.97;5018582;28;1061;-79
2022/10/02 04:38:18;;;;;;;;;;;;;;;20.98;31.78;97346.16;5019942;28;853;-79
2022/10/02 04:40:49;;;;;;;;;;;;;;;21.01;31.63;97341.63;5021322;28;834;-79
2022/10/02 04:43:32;;;;;;;;;;;;;;;20.93;31.67;97351.59;5002532;28;885;-79
2022/10/02 04:46:17;;;;;;;;;;;;;;;20.99;31.56;97346.97;5018794;28;778;-79
2022/10/02 04:48:42;;;;;;;;;;;;;;;21.02;32.04;97340.38;5002132;28;1910;-79
2022/10/02 04:51:08;;;;;;;;;;;;;;;20.81;31.94;97337.03;5018655;28;746;-79
2022/10/02 04:53:42;;;;;;;;;;;;;;;20.93;31.71;97343.09;5018474;28;816;-79
2022/10/02 04:56:20;;;;;;;;;;;;;;;21.05;32.49;97345.13;5018857;28;759;-79
2022/10/02 04:58:51;;;;;;;;;;;;;;;21.12;32.95;97344.88;5018612;28;943;-80
2022/10/02 05:01:16;;;;;;;;;;;;;;;21.15;33.58;97338.31;5018450;28;907;-79
2022/10/02 05:03:44;;;;;;;;;;;;;;;21.03;33.52;97319.31;5002140;28;799;-79
2022/10/02 05:06:14;;;;;;;;;;;;;;;21.12;32.73;97330.72;5018538;28;1094;-79
2022/10/02 05:08:45;;;;;;;;;;;;;;;21.15;32.67;97310.03;5018163;28;1983;-79
2022/10/02 05:11:29;;;;;;;;;;;;;;;21.17;32.57;97315.22;5018268;28;847;-79
2022/10/02 05:14:00;;;;;;;;;;;;;;;20.87;32.86;97314.63;5018962;28;902;-79
2022/10/02 05:16:44;;;;;;;;;;;;;;;21.04;32.29;97315.28;5020120;28;927;-79
2022/10/02 05:19:16;;;;;;;;;;;;;;;20.96;32.48;97325.25;5020055;28;731;-79
2022/10/02 05:21:48;;;;;;;;;;;;;;;21.16;31.73;97328.56;5020388;28;779;-79
2022/10/02 05:24:33;;;;;;;;;;;;;;;21.13;31.68;97335.13;5020682;28;827;-79
2022/10/02 05:27:08;;;;;;;;;;;;;;;21.01;31.77;97344.47;5019939;28;736;-79
2022/10/02 05:29:33;;;;;;;;;;;;;;;20.99;31.74;97344.91;5019990;28;1906;-79
2022/10/02 05:31:59;;;;;;;;;;;;;;;20.96;31.75;97353.53;5019824;28;1225;-80
2022/10/02 05:34:43;;;;;;;;;;;;;;;20.73;32.05;97335.72;5018697;28;764;-79
2022/10/02 05:37:28;;;;;;;;;;;;;;;21.20;31.75;97334.09;5020095;28;787;-79
2022/10/02 05:40:05;;;;;;;;;;;;;;;21.25;32.44;97333.53;5020645;28;756;-79
2022/10/02 05:42:49;;;;;;;;;;;;;;;21.25;32.75;97331.47;5002381;28;727;-80
2022/10/02 05:45:15;;;;;;;;;;;;;;;21.04;32.89;97332.25;5020218;28;797;-79
2022/10/02 05:47:41;;;;;;;;;;;;;;;21.06;32.68;97324.88;5019499;28;882;-79
2022/10/02 05:50:20;;;;;;;;;;;;;;;20.93;32.56;97315.63;5019810;28;1975;-79
2022/10/02 05:52:59;;;;;;;;;;;;;;;20.96;32.31;97311.88;5018772;28;846;-79
2022/10/02 05:55:28;;;;;;;;;;;;;;;21.16;31.90;97314.44;5018364;28;847;-79
2022/10/02 05:57:56;;;;;;;;;;;;;;;20.91;32.62;97311.69;5018296;28;724;-79
2022/10/02 06:00:22;;;;;;;;;;;;;;;20.87;32.76;97311.00;5019698;28;826;-79
2022/10/02 06:02:53;;;;;;;;;;;;;;;20.97;32.52;97315.50;5019496;28;821;-79
2022/10/02 06:05:36;;;;;;;;;;;;;;;20.84;32.57;97300.63;5019400;28;743;-80
2022/10/02 06:08:02;;;;;;;;;;;;;;;20.97;32.43;97292.88;5017898;28;1914;-79
2022/10/02 06:10:29;;;;;;;;;;;;;;;21.23;32.01;97297.19;5001845;28;699;-79
2022/10/02 06:13:24;;;;;;;;;;;;;;;21.19;32.28;97290.88;5017954;28;778;-79
2022/10/02 06:15:51;;;;;;;;;;;;;;;20.94;32.69;97299.47;4977701;28;930;-79
2022/10/02 06:18:24;;;;;;;;;;;;;;;21.13;32.38;97295.53;4978195;28;830;-79
2022/10/02 06:20:49;;;;;;;;;;;;;;;21.24;32.95;97284.63;4958275;29;847;-79
2022/10/02 06:23:17;;;;;;;;;;;;;;;21.21;33.84;97285.53;4958032;29;962;-80
2022/10/02 06:25:46;;;;;;;;;;;;;;;21.32;33.87;97302.94;4957193;29;1191;-79
2022/10/02 06:28:16;;;;;;;;;;;;;;;21.30;34.41;97296.97;4940976;28;1981;-80
2022/10/02 06:30:43;;;;;;;;;;;;;;;21.32;34.21;97297.28;4958396;29;1184;-79
2022/10/02 06:33:11;;;;;;;;;;;;;;;21.43;33.54;97279.13;4942137;29;1069;-80
2022/10/02 06:35:36;;;;;;;;;;;;;;;21.26;33.80;97276.47;4942263;29;775;-80
2022/10/02 06:38:08;;;;;;;;;;;;;;;21.22;33.65;97281.47;4958231;29;737;-80
2022/10/02 06:40:33;;;;;;;;;;;;;;;21.37;33.35;97269.66;4958503;29;964;-79
2022/10/02 06:43:01;;;;;;;;;;;;;;;21.35;33.42;97260.81;4958321;29;1188;-79
2022/10/02 06:45:34;;;;;;;;;;;;;;;21.18;33.66;97283.63;4957941;29;979;-79
2022/10/02 06:48:01;;;;;;;;;;;;;;;21.20;33.49;97283.97;4942005;29;844;-79
2022/10/02 06:50:27;;;;;;;;;;;;;;;21.06;33.88;97284.47;4941889;29;979;-79
2022/10/02 06:53:11;;;;;;;;;;;;;;;21.18;33.34;97275.13;5003848;28;857;-79
2022/10/02 06:55:40;;;;;;;;;;;;;;;21.24;33.22;97278.97;5018852;28;728;-79
2022/10/02 06:58:08;;;;;;;;;;;;;;;21.25;33.21;97286.22;5017864;28;772;-79
2022/10/02 07:00:35;;;;;;;;;;;;;;;21.26;33.01;97293.44;5018929;28;886;-79
2022/10/02 07:03:21;;;;;;;;;;;;;;;21.17;33.13;97282.06;5017141;28;743;-79
2022/10/02 07:06:05;;;;;;;;;;;;;;;21.20;33.03;97294.50;5018298;28;767;-79
2022/10/02 07:08:40;;;;;;;;;;;;;;;21.08;33.55;97287.63;5016871;28;1975;-79
2022/10/02 07:11:15;;;;;;;;;;;;;;;21.11;33.48;97280.28;5018333;28;849;-78
2022/10/02 07:13:52;;;;;;;;;;;;;;;21.24;33.00;97284.63;5018174;28;708;-79
2022/10/02 07:16:37;;;;;;;;;;;;;;;21.10;33.35;97282.31;5018135;28;759;-79
2022/10/02 07:19:05;;;;;;;;;;;;;;;21.17;33.27;97289.75;5017824;28;914;-79
2022/10/02 07:21:49;;;;;;;;;;;;;;;21.12;33.39;97282.63;5018047;28;743;-79
2022/10/02 07:24:24;;;;;;;;;;;;;;;21.21;33.07;97285.53;5017982;28;720;-79
2022/10/02 07:26:59;;;;;;;;;;;;;;;21.25;33.17;97274.91;5016613;28;882;-79
2022/10/02 07:29:33;;;;;;;;;;;;;;;21.05;33.62;97278.03;5017889;28;1902;-79
2022/10/02 07:32:02;;;;;;;;;;;;;;;21.19;33.37;97285.22;5017904;28;1038;-79
2022/10/02 07:34:30;;;;;;;;;;;;;;;21.11;33.56;97281.06;5017999;28;869;-79
2022/10/02 07:37:02;;;;;;;;;;;;;;;21.13;33.53;97292.69;5016532;28;739;-78
2022/10/02 07:39:46;;;;;;;;;;;;;;;21.35;33.11;97289.13;5017755;28;698;-79
2022/10/02 07:42:30;;;;;;;;;;;;;;;21.04;33.88;97309.63;5016711;28;1431;-79
2022/10/02 07:44:59;;;;;;;;;;;;;;;21.05;33.77;97311.19;5017603;28;1092;-79
2022/10/02 07:47:41;;;;;;;;;;;;;;;21.12;33.68;97310.13;5016088;28;786;-79
2022/10/02 07:50:10;;;;;;;;;;;;;;;21.17;33.27;97307.50;4999971;28;1972;-79
2022/10/02 07:52:54;;;;;;;;;;;;;;;21.12;33.50;97310.13;5017399;28;853;-79
2022/10/02 07:55:20;;;;;;;;;;;;;;;21.16;33.11;97294.63;5017373;28;833;-79
2022/10/02 07:57:57;;;;;;;;;;;;;;;21.23;32.96;97293.56;5032847;28;747;-79
2022/10/02 08:00:23;;;;;;;;;;;;;;;21.10;33.01;97296.47;5017505;28;771;-79
2022/10/02 08:02:54;;;;;;;;;;;;;;;21.06;33.08;97295.78;5032814;28;759;-79
2022/10/02 08:05:20;;;;;;;;;;;;;;;21.16;32.87;97294.63;4999490;28;925;-79
2022/10/02 08:07:49;;;;;;;;;;;;;;;21.21;32.89;97288.38;5017770;28;719;-79
2022/10/02 08:10:15;;;;;;;;;;;;;;;21.29;32.70;97292.50;5015325;28;1910;-79
2022/10/02 08:12:43;;;;;;;;;;;;;;;21.08;33.16;97284.81;5017200;28;1048;-79
2022/10/02 08:15:14;;;;;;;;;;;;;;;21.26;32.81;97282.13;5016464;28;1056;-79
2022/10/02 08:17:43;;;;;;;;;;;;;;;21.22;32.91;97287.13;5015876;28;1182;-79
2022/10/02 08:20:14;;;;;;;;;;;;;;;21.18;33.38;97292.13;5016000;28;1143;-79
2022/10/02 08:22:40;;;;;;;;;;;;;;;21.31;32.78;97292.88;5017123;28;743;-79
2022/10/02 08:25:13;;;;;;;;;;;;;;;21.32;32.72;97290.84;5017220;28;830;-79
2022/10/02 08:27:59;;;;;;;;;;;;;;;21.27;32.87;97300.69;5015734;28;818;-79
2022/10/02 08:30:24;;;;;;;;;;;;;;;21.32;33.01;97305.78;5016011;28;1906;-79
2022/10/02 08:32:50;;;;;;;;;;;;;;;21.28;33.16;97293.75;5016482;28;1022;-79
2022/10/02 08:35:18;;;;;;;;;;;;;;;21.33;32.92;97298.88;5015507;28;909;-78
2022/10/02 08:37:56;;;;;;;;;;;;;;;21.38;32.98;97303.16;5016976;28;778;-79
2022/10/02 08:40:51;;;;;;;;;;;;;;;21.55;33.00;97300.91;5015822;28;830;-79
2022/10/02 08:43:36;;;;;;;;;;;;;;;21.38;33.57;97322.16;4975446;28;1035;-79
2022/10/02 08:46:01;;;;;;;;;;;;;;;21.24;33.74;97329.91;4975484;28;996;-79
2022/10/02 08:48:39;;;;;;;;;;;;;;;21.41;33.42;97326.91;4959404;28;1997;-79
2022/10/02 08:51:24;;;;;;;;;;;;;;;21.40;33.37;97339.47;4975937;28;790;-79
2022/10/02 08:54:00;;;;;;;;;;;;;;;21.28;33.93;97341.88;4975579;28;987;-78
2022/10/02 08:56:31;;;;;;;;;;;;;;;21.48;33.48;97333.09;4959626;28;763;-78
2022/10/02 08:59:17;;;;;;;;;;;;;;;21.48;33.26;97315.31;4975459;28;850;-79
2022/10/02 09:02:01;;;;;;;;;;;;;;;21.28;33.67;97313.56;4959820;28;896;-79
2022/10/02 09:04:59;;;;;;;;;;;;;;;21.40;33.62;97314.00;4959463;28;1142;-79
2022/10/02 09:07:40;;;;;;;;;;;;;;;21.29;33.99;97303.81;4918400;29;973;-79
2022/10/02 09:10:09;;;;;;;;;;;;;;;21.43;33.66;97324.41;4902750;29;1976;-79
2022/10/02 09:12:43;;;;;;;;;;;;;;;21.28;33.85;97315.63;4917808;29;1036;-79
2022/10/02 09:15:14;;;;;;;;;;;;;;;21.44;33.70;97315.44;4887150;29;1423;-79
2022/10/02 09:17:46;;;;;;;;;;;;;;;21.45;33.90;97310.56;4918176;29;988;-79
2022/10/02 09:20:18;;;;;;;;;;;;;;;21.32;33.99;97314.25;4915792;29;957;-79
2022/10/02 09:22:55;;;;;;;;;;;;;;;21.42;33.87;97328.50;4940347;29;1451;-79
2022/10/02 09:25:21;;;;;;;;;;;;;;;21.55;33.72;97309.38;4940342;29;921;-79
2022/10/02 09:28:05;;;;;;;;;;;;;;;21.46;33.84;97315.00;4940383;29;765;-79
2022/10/02 09:30:38;;;;;;;;;;;;;;;21.44;34.23;97328.81;4940105;29;1977;-79
2022/10/02 09:33:22;;;;;;;;;;;;;;;21.71;33.56;97320.53;4924469;29;1249;-79
2022/10/02 09:35:47;;;;;;;;;;;;;;;21.32;34.43;97336.91;4940169;29;899;-80
2022/10/02 09:38:28;;;;;;;;;;;;;;;21.49;33.89;97336.72;4940015;29;1263;-79
2022/10/02 09:40:54;;;;;;;;;;;;;;;21.44;34.05;97342.97;4924096;29;729;-79
2022/10/02 09:43:41;;;;;;;;;;;;;;;21.57;33.77;97352.19;4954601;28;896;-79
2022/10/02 09:46:09;;;;;;;;;;;;;;;21.56;33.78;97361.94;4962574;28;916;-79
2022/10/02 09:48:48;;;;;;;;;;;;;;;21.59;33.95;97363.84;4962207;28;1961;-79
2022/10/02 09:51:32;;;;;;;;;;;;;;;21.56;33.82;97362.72;4946368;28;936;-79
2022/10/02 09:54:29;;;;;;;;;;;;;;;21.47;34.26;97376.03;4946236;28;1168;-79
2022/10/02 09:57:14;;;;;;;;;;;;;;;21.64;33.59;97373.78;4904694;29;1030;-79
2022/10/02 09:59:57;;;;;;;;;;;;;;;21.55;33.59;97366.00;4904790;29;1289;-80
2022/10/02 10:02:22;;;;;;;;;;;;;;;21.33;34.08;97371.66;4904872;29;930;-79
2022/10/02 10:05:07;;;;;;;;;;;;;;;21.64;33.45;97365.28;4904711;29;917;-80
2022/10/02 10:07:53;;;;;;;;;;;;;;;21.48;33.83;97372.72;4904732;29;921;-79
2022/10/02 10:10:37;;;;;;;;;;;;;;;21.66;33.36;97383.41;4904772;29;1977;-80
2022/10/02 10:13:13;;;;;;;;;;;;;;;21.47;33.78;97376.03;4904447;29;921;-79
2022/10/02 10:15:39;;;;;;;;;;;;;;;21.57;33.49;97383.34;4919853;29;1977;-79
2022/10/02 10:18:25;;;;;;;;;;;;;;;21.70;33.49;97377.59;4920313;29;788;-79
2022/10/02 10:20:52;;;;;;;;;;;;;;;21.83;33.29;97387.63;4920778;29;951;-79
2022/10/02 10:23:34;;;;;;;;;;;;;;;21.66;33.56;97383.41;4931054;29;870;-79
2022/10/02 10:26:18;;;;;;;;;;;;;;;21.76;33.00;97393.56;4907695;29;879;-79
2022/10/02 10:28:58;;;;;;;;;;;;;;;21.63;33.38;97394.84;4938922;29;1906;-79
2022/10/02 10:31:43;;;;;;;;;;;;;;;21.81;33.19;97395.81;4942004;28;1099;-79
2022/10/02 10:34:17;;;;;;;;;;;;;;;21.69;33.36;97388.13;5018184;28;872;-79
2022/10/02 10:39:35;;;;;;;;;;;;;;;21.37;33.96;97411.16;5018161;28;1320;-79
2022/10/02 10:42:20;;;;;;;;;;;;;;;21.49;33.55;97413.94;5019079;28;751;-79
2022/10/02 10:44:45;;;;;;;;;;;;;;;21.65;33.24;97415.00;5018761;28;779;-79
2022/10/02 10:47:17;;;;;;;;;;;;;;;21.61;33.46;97415.16;5018906;28;744;-80
2022/10/02 10:50:04;;;;;;;;;;;;;;;21.37;33.72;97414.78;5017145;28;2273;-79
2022/10/02 10:52:34;;;;;;;;;;;;;;;21.46;33.45;97425.41;5018349;28;863;-79
2022/10/02 10:55:18;;;;;;;;;;;;;;;21.33;33.43;97433.91;5017448;28;779;-79
2022/10/02 10:58:02;;;;;;;;;;;;;;;21.50;33.43;97426.03;5017195;28;1302;-80
2022/10/02 11:00:39;;;;;;;;;;;;;;;21.55;32.99;97431.13;5017375;28;814;-80
2022/10/02 11:03:17;;;;;;;;;;;;;;;21.35;33.30;97424.94;4985487;28;1228;-80
2022/10/02 11:05:46;;;;;;;;;;;;;;;21.65;32.88;97429.94;5000968;28;851;-80
2022/10/02 11:08:29;;;;;;;;;;;;;;;21.60;32.72;97424.88;4999972;28;1914;-79
2022/10/02 11:11:13;;;;;;;;;;;;;;;21.67;32.95;97430.28;4999660;28;810;-80
2022/10/02 11:13:53;;;;;;;;;;;;;;;21.50;32.96;97411.88;4999651;28;725;-79
2022/10/02 11:16:24;;;;;;;;;;;;;;;21.46;33.21;97414.06;4999574;28;868;-80
2022/10/02 11:19:00;;;;;;;;;;;;;;;21.59;32.87;97412.75;5015831;28;820;-80
2022/10/02 11:21:29;;;;;;;;;;;;;;;21.57;32.80;97397.50;4999615;28;771;-80
2022/10/02 11:23:54;;;;;;;;;;;;;;;21.66;32.78;97410.91;5016377;28;850;-79
2022/10/02 11:26:25;;;;;;;;;;;;;;;21.44;33.28;97399.56;4999980;28;707;-79
2022/10/02 11:28:55;;;;;;;;;;;;;;;21.65;32.79;97412.94;5015720;28;1983;-79
2022/10/02 11:31:20;;;;;;;;;;;;;;;21.35;33.47;97413.63;4983413;28;1277;-79
2022/10/02 11:33:56;;;;;;;;;;;;;;;21.50;33.23;97411.88;4999537;28;1084;-80
2022/10/02 11:36:41;;;;;;;;;;;;;;;21.65;32.91;97412.16;4999540;28;983;-79
2022/10/02 11:39:13;;;;;;;;;;;;;;;21.65;32.66;97418.63;5016490;28;1084;-79
2022/10/02 11:41:49;;;;;;;;;;;;;;;21.62;32.71;97419.56;5016802;28;1186;-80
2022/10/02 11:44:26;;;;;;;;;;;;;;;21.64;32.92;97425.53;4979422;28;848;-79
2022/10/02 11:46:56;;;;;;;;;;;;;;;21.60;32.65;97427.69;4980059;28;868;-80
2022/10/02 11:49:36;;;;;;;;;;;;;;;21.66;32.50;97430.72;4963314;28;1975;-79
2022/10/02 11:52:07;;;;;;;;;;;;;;;21.57;32.59;97431.47;4980121;28;756;-80
2022/10/02 11:55:11;;;;;;;;;;;;;;;21.67;32.55;97421.81;4996167;28;794;-79
2022/10/02 11:57:46;;;;;;;;;;;;;;;21.40;32.92;97421.53;4903120;29;1262;-80
2022/10/02 12:00:30;;;;;;;;;;;;;;;21.37;33.01;97419.63;4903413;29;962;-79
2022/10/02 12:03:11;;;;;;;;;;;;;;;21.51;32.64;97427.63;4918990;29;937;-79
2022/10/02 12:05:41;;;;;;;;;;;;;;;21.45;32.68;97424.59;4902799;29;882;-79
2022/10/02 12:08:29;;;;;;;;;;;;;;;21.58;32.66;97438.69;4887562;29;1268;-80
2022/10/02 12:11:12;;;;;;;;;;;;;;;21.37;33.19;97439.44;4902960;29;1184;-80
2022/10/02 12:14:04;;;;;;;;;;;;;;;21.47;32.63;97443.94;4918682;29;736;-80
2022/10/02 12:16:29;;;;;;;;;;;;;;;21.35;33.03;97451.25;4900041;29;1238;-79
2022/10/02 12:19:05;;;;;;;;;;;;;;;21.56;32.39;97444.03;4884171;29;1260;-79
2022/10/02 12:27:11;;;;;;;;;;;;;;;21.39;33.14;97451.09;4866125;29;1141;-80
2022/10/02 12:29:48;;;;;;;;;;;;;;;21.56;32.61;97439.16;4956635;29;1907;-80
2022/10/02 12:32:16;;;;;;;;;;;;;;;21.33;32.86;97443.19;4956481;29;1103;-79
2022/10/02 12:34:55;;;;;;;;;;;;;;;21.39;32.83;97445.44;4940467;29;973;-80
2022/10/02 12:37:30;;;;;;;;;;;;;;;21.51;32.57;97450.28;4940693;29;1325;-80
2022/10/02 12:39:55;;;;;;;;;;;;;;;21.59;32.30;97448.78;4956402;29;1100;-80
2022/10/02 12:42:30;;;;;;;;;;;;;;;21.75;31.91;97448.59;4956427;29;724;-79
2022/10/02 12:45:00;;;;;;;;;;;;;;;21.54;32.73;97449.34;4915050;29;943;-79
2022/10/02 12:47:58;;;;;;;;;;;;;;;21.61;32.37;97448.34;4915281;29;1187;-79
2022/10/02 12:50:24;;;;;;;;;;;;;;;21.52;32.78;97446.19;4862118;29;1911;-79
2022/10/02 12:52:50;;;;;;;;;;;;;;;21.60;32.44;97458.84;4885921;29;992;-79
2022/10/02 12:55:27;;;;;;;;;;;;;;;21.68;32.15;97460.19;4902582;29;1405;-79
2022/10/02 12:58:02;;;;;;;;;;;;;;;21.59;32.20;97451.59;4922066;29;781;-80
2022/10/02 13:00:39;;;;;;;;;;;;;;;21.53;32.32;97464.75;4921886;29;975;-79
2022/10/02 13:03:30;;;;;;;;;;;;;;;21.51;32.23;97472.94;4922251;29;871;-79
2022/10/02 13:06:02;;;;;;;;;;;;;;;21.47;32.42;97466.59;4921741;29;1051;-79
2022/10/02 13:08:43;;;;;;;;;;;;;;;21.53;32.50;97490.22;4921518;29;1914;-79
2022/10/02 13:11:20;;;;;;;;;;;;;;;21.57;32.10;97482.41;4906383;29;1079;-80
2022/10/02 13:13:48;;;;;;;;;;;;;;;21.54;32.21;97484.09;4921703;29;911;-80
2022/10/02 13:16:23;;;;;;;;;;;;;;;21.59;32.07;97479.91;4922185;29;855;-80
2022/10/02 13:18:55;;;;;;;;;;;;;;;21.69;31.76;97481.56;4921599;29;1000;-80
2022/10/02 13:21:41;;;;;;;;;;;;;;;21.52;32.05;97489.44;4921557;29;732;-79
2022/10/02 13:24:12;;;;;;;;;;;;;;;21.50;32.44;97493.97;4921637;29;1170;-80
2022/10/02 13:26:38;;;;;;;;;;;;;;;21.50;32.34;97483.47;4958396;28;1087;-80
2022/10/02 13:29:23;;;;;;;;;;;;;;;21.56;31.95;97486.50;4978878;28;1914;-79
2022/10/02 13:32:06;;;;;;;;;;;;;;;21.46;32.04;97504.66;4962736;28;1081;-79
2022/10/02 13:34:47;;;;;;;;;;;;;;;21.42;32.12;97504.75;4978900;28;981;-79
2022/10/02 13:37:15;;;;;;;;;;;;;;;21.41;32.34;97491.84;4979050;28;908;-79
2022/10/02 13:39:41;;;;;;;;;;;;;;;21.53;32.00;97505.19;4962904;28;807;-79
2022/10/02 13:42:25;;;;;;;;;;;;;;;21.55;32.02;97496.22;4988987;28;964;-80